Time;durP1;ratioP1;P1;durP2;ratioP2;P2;SDS_P1;SDS_P2;PMS_P1;PMS_P2;Temp;Humidity;BMP_temperature;BMP_pressure;BME280_temperature;BME280_humidity;BME280_pressure;Samples;Min_cycle;Max_cycle;Signal;HPM_P1;HPM_P2
2021/05/28 00:00:01;;;;;;;26.10;24.50;;;12.80;84.90;;;;;;5010648;28;20476;-77
2021/05/28 00:02:28;;;;;;;25.97;24.27;;;12.80;85.20;;;;;;5022829;28;20487;-78
2021/05/28 00:04:55;;;;;;;26.20;24.60;;;12.70;85.50;;;;;;5018412;28;20582;-78
2021/05/28 00:07:21;;;;;;;25.70;24.10;;;12.60;86.40;;;;;;5023024;28;20934;-77
2021/05/28 00:09:47;;;;;;;26.93;25.23;;;12.60;87.30;;;;;;5020458;28;20982;-77
2021/05/28 00:12:14;;;;;;;26.33;24.63;;;12.50;87.50;;;;;;5003490;28;20542;-78
2021/05/28 00:14:41;;;;;;;27.30;25.50;;;12.50;88.00;;;;;;5016569;28;20979;-78
2021/05/28 00:17:07;;;;;;;26.20;24.60;;;12.50;88.10;;;;;;5021535;28;20490;-78
2021/05/28 00:19:35;;;;;;;26.83;25.03;;;12.50;88.20;;;;;;5023255;28;20455;-78
2021/05/28 00:22:02;;;;;;;26.60;24.90;;;12.40;88.70;;;;;;5023306;28;20486;-77
2021/05/28 00:24:28;;;;;;;26.57;24.83;;;12.20;89.50;;;;;;5020612;28;21038;-78
2021/05/28 00:26:55;;;;;;;26.87;25.07;;;12.30;89.60;;;;;;5015084;28;20465;-78
2021/05/28 00:29:21;;;;;;;27.93;26.13;;;12.30;89.80;;;;;;5021261;28;20892;-78
2021/05/28 00:31:48;;;;;;;29.07;27.07;;;12.30;89.80;;;;;;5009130;28;20479;-78
2021/05/28 00:34:14;;;;;;;27.60;25.80;;;12.40;89.40;;;;;;5020469;28;20464;-78
2021/05/28 00:36:40;;;;;;;27.63;25.93;;;12.40;89.10;;;;;;5020997;28;20915;-78
2021/05/28 00:39:08;;;;;;;27.70;25.90;;;12.20;89.70;;;;;;5036909;28;20450;-78
2021/05/28 00:41:34;;;;;;;26.43;24.67;;;12.10;90.20;;;;;;5026129;28;20485;-78
2021/05/28 00:44:02;;;;;;;26.80;25.20;;;12.20;89.90;;;;;;5027094;28;20464;-78
2021/05/28 00:46:28;;;;;;;27.40;25.70;;;12.20;89.10;;;;;;5022303;28;20482;-78
2021/05/28 00:48:55;;;;;;;26.50;24.70;;;12.20;89.40;;;;;;5023579;28;20619;-78
2021/05/28 00:51:22;;;;;;;26.47;24.30;;;12.30;88.90;;;;;;5021056;28;20463;-78
2021/05/28 00:53:49;;;;;;;27.57;25.53;;;12.40;88.30;;;;;;5019802;28;20524;-78
2021/05/28 00:56:17;;;;;;;26.40;24.77;;;12.40;87.50;;;;;;5020180;28;20507;-78
2021/05/28 00:58:46;;;;;;;27.07;25.27;;;12.40;87.60;;;;;;5020751;28;20461;-78
2021/05/28 01:01:13;;;;;;;27.43;25.60;;;12.50;86.50;;;;;;5008383;28;20518;-78
2021/05/28 01:03:39;;;;;;;26.57;24.97;;;12.30;86.40;;;;;;5022499;28;20590;-78
2021/05/28 01:06:07;;;;;;;25.50;23.80;;;12.30;86.70;;;;;;5015412;28;20471;-78
2021/05/28 01:08:33;;;;;;;26.70;24.80;;;12.30;86.50;;;;;;5023193;28;21052;-78
2021/05/28 01:10:59;;;;;;;26.90;24.80;;;12.30;86.00;;;;;;5017170;28;21017;-78
2021/05/28 01:13:27;;;;;;;26.40;24.50;;;12.30;85.40;;;;;;5026408;28;20486;-78
2021/05/28 01:15:54;;;;;;;26.00;24.23;;;12.20;85.10;;;;;;5014714;28;20523;-78
2021/05/28 01:18:20;;;;;;;24.80;23.33;;;12.30;85.30;;;;;;5010735;28;20888;-78
2021/05/28 01:20:47;;;;;;;26.10;24.50;;;12.30;84.00;;;;;;5016587;28;20487;-78
2021/05/28 01:23:14;;;;;;;26.70;25.10;;;12.30;84.20;;;;;;5023713;28;20916;-78
2021/05/28 01:25:41;;;;;;;26.70;24.97;;;12.30;84.00;;;;;;5015707;28;20999;-78
2021/05/28 01:28:07;;;;;;;26.27;24.60;;;12.30;84.40;;;;;;5021065;28;20477;-78
2021/05/28 01:30:34;;;;;;;25.90;24.40;;;12.30;84.90;;;;;;5020848;28;20467;-78
2021/05/28 01:33:01;;;;;;;26.53;24.77;;;12.40;84.60;;;;;;5016310;28;20474;-78
2021/05/28 01:35:27;;;;;;;25.53;23.93;;;12.40;84.10;;;;;;5029121;28;20463;-78
2021/05/28 01:37:54;;;;;;;26.47;24.10;;;12.30;83.50;;;;;;5023762;28;20472;-78
2021/05/28 01:40:23;;;;;;;25.33;23.77;;;12.30;83.40;;;;;;5024049;28;20538;-78
2021/05/28 01:42:50;;;;;;;24.93;23.40;;;12.30;83.20;;;;;;5022513;28;20483;-78
2021/05/28 01:45:17;;;;;;;25.43;23.80;;;12.30;83.30;;;;;;5027961;28;20463;-78
2021/05/28 01:47:44;;;;;;;25.90;24.20;;;12.30;83.00;;;;;;5030054;28;20867;-78
2021/05/28 01:50:12;;;;;;;26.10;24.40;;;12.20;82.90;;;;;;5022883;28;20551;-78
2021/05/28 01:52:39;;;;;;;25.70;24.00;;;12.10;83.00;;;;;;5015294;28;20522;-78
2021/05/28 01:55:08;;;;;;;25.73;24.13;;;12.10;84.10;;;;;;5025801;28;20479;-78
2021/05/28 01:57:35;;;;;;;25.10;23.60;;;12.20;83.40;;;;;;5027194;28;20490;-78
2021/05/28 02:00:02;;;;;;;24.47;23.07;;;12.30;83.10;;;;;;5025110;28;20509;-78
2021/05/28 02:02:28;;;;;;;24.57;22.90;;;12.40;82.70;;;;;;5025887;28;21021;-79
2021/05/28 02:04:54;;;;;;;24.40;22.90;;;12.40;82.50;;;;;;5019206;28;20981;-78
2021/05/28 02:07:21;;;;;;;25.00;23.50;;;12.50;82.60;;;;;;5024812;28;20526;-79
2021/05/28 02:09:47;;;;;;;24.30;22.80;;;12.50;82.50;;;;;;5027386;28;20521;-78
2021/05/28 02:12:14;;;;;;;25.73;24.13;;;12.50;82.30;;;;;;5015365;28;20494;-78
2021/05/28 02:14:41;;;;;;;26.00;24.30;;;12.60;82.10;;;;;;5026458;28;20495;-78
2021/05/28 02:17:10;;;;;;;25.27;23.53;;;12.60;82.10;;;;;;5010380;28;20511;-79
2021/05/28 02:19:37;;;;;;;25.60;23.90;;;12.60;83.60;;;;;;5011588;28;20830;-79
2021/05/28 02:22:03;;;;;;;24.63;23.23;;;12.50;83.50;;;;;;5013613;28;20816;-78
2021/05/28 02:24:29;;;;;;;25.67;24.17;;;12.50;83.60;;;;;;5018670;28;20970;-79
2021/05/28 02:26:56;;;;;;;27.40;25.60;;;12.50;83.40;;;;;;5010793;28;20896;-79
2021/05/28 02:29:23;;;;;;;25.03;23.73;;;12.50;83.00;;;;;;5022590;28;20574;-79
2021/05/28 02:31:50;;;;;;;25.17;23.67;;;12.60;82.80;;;;;;5010945;28;20482;-79
2021/05/28 02:34:17;;;;;;;24.80;23.30;;;12.70;82.40;;;;;;5021755;28;20455;-79
2021/05/28 02:36:43;;;;;;;25.30;23.70;;;12.70;82.40;;;;;;5017216;28;20948;-78
2021/05/28 02:39:09;;;;;;;30.60;28.53;;;12.70;82.60;;;;;;5024937;28;20459;-78
2021/05/28 02:41:36;;;;;;;24.67;23.37;;;12.60;83.10;;;;;;5009898;28;20487;-78
2021/05/28 02:44:04;;;;;;;24.07;22.57;;;12.60;83.10;;;;;;5024138;28;20464;-78
2021/05/28 02:46:31;;;;;;;24.00;22.37;;;12.50;82.90;;;;;;5016029;28;20531;-78
2021/05/28 02:48:59;;;;;;;24.67;23.27;;;12.50;83.10;;;;;;5024724;28;20459;-78
2021/05/28 02:51:25;;;;;;;24.10;22.80;;;12.50;83.00;;;;;;5023042;28;20829;-78
2021/05/28 02:53:52;;;;;;;27.33;25.73;;;12.50;82.50;;;;;;5026243;28;20570;-78
2021/05/28 02:56:18;;;;;;;24.03;22.37;;;12.50;82.70;;;;;;5021083;28;21119;-78
2021/05/28 02:58:45;;;;;;;29.40;27.27;;;12.40;84.20;;;;;;5028569;28;21085;-78
2021/05/28 03:01:12;;;;;;;26.23;24.00;;;12.40;84.70;;;;;;5022425;28;20490;-78
2021/05/28 03:03:38;;;;;;;25.70;24.13;;;12.50;84.30;;;;;;5024670;28;20483;-79
2021/05/28 03:06:06;;;;;;;26.33;24.37;;;12.40;83.90;;;;;;5009439;28;20571;-78
2021/05/28 03:08:33;;;;;;;24.53;23.13;;;12.50;83.60;;;;;;5008740;28;21042;-78
2021/05/28 03:11:00;;;;;;;32.90;31.10;;;12.40;83.20;;;;;;5013071;28;20467;-78
2021/05/28 03:13:26;;;;;;;25.30;23.80;;;12.40;83.40;;;;;;5021150;28;20487;-79
2021/05/28 03:15:52;;;;;;;23.87;22.57;;;12.30;84.20;;;;;;5023202;28;20463;-78
2021/05/28 03:18:21;;;;;;;24.70;23.23;;;12.40;84.00;;;;;;5024330;28;20546;-78
2021/05/28 03:20:50;;;;;;;24.97;23.60;;;12.40;83.80;;;;;;5013241;28;20488;-78
2021/05/28 03:23:19;;;;;;;25.70;24.20;;;12.40;83.80;;;;;;5017184;28;20495;-78
2021/05/28 03:25:45;;;;;;;26.30;24.20;;;12.30;84.40;;;;;;5007359;28;20457;-78
2021/05/28 03:28:12;;;;;;;29.03;26.27;;;12.20;85.20;;;;;;5024820;28;20945;-77
2021/05/28 03:30:38;;;;;;;28.23;26.37;;;12.20;85.00;;;;;;5025847;28;20517;-77
2021/05/28 03:33:06;;;;;;;25.20;23.80;;;12.10;84.90;;;;;;5026506;28;20488;-77
2021/05/28 03:35:32;;;;;;;27.73;25.50;;;12.10;84.80;;;;;;5014117;28;20564;-77
2021/05/28 03:37:59;;;;;;;25.80;24.30;;;12.10;84.90;;;;;;5012378;28;20474;-78
2021/05/28 03:40:26;;;;;;;25.33;23.83;;;12.00;84.80;;;;;;5022579;28;20484;-78
2021/05/28 03:42:52;;;;;;;26.90;25.10;;;12.00;84.00;;;;;;5017577;28;20480;-78
2021/05/28 03:45:19;;;;;;;25.53;23.90;;;12.00;83.70;;;;;;5017634;28;20534;-78
2021/05/28 03:47:45;;;;;;;25.70;24.20;;;12.00;83.40;;;;;;5007711;28;20904;-79
2021/05/28 03:50:12;;;;;;;25.00;23.67;;;12.00;83.20;;;;;;5006245;28;20461;-79
2021/05/28 03:52:39;;;;;;;25.23;23.67;;;11.90;83.50;;;;;;5007620;28;20472;-78
2021/05/28 03:55:07;;;;;;;27.23;25.53;;;11.90;84.10;;;;;;5018680;28;20468;-79
2021/05/28 03:57:34;;;;;;;25.47;23.87;;;11.80;84.20;;;;;;5023189;28;20461;-78
2021/05/28 04:00:00;;;;;;;24.17;22.87;;;11.80;84.50;;;;;;5023294;28;20529;-78
2021/05/28 04:02:27;;;;;;;25.40;23.80;;;11.70;84.70;;;;;;5027678;28;21044;-78
2021/05/28 04:04:53;;;;;;;24.50;23.10;;;11.80;84.80;;;;;;5021163;28;20464;-78
2021/05/28 04:07:20;;;;;;;24.63;23.23;;;11.80;84.90;;;;;;5024464;28;20463;-79
2021/05/28 04:09:46;;;;;;;27.10;25.30;;;11.80;85.10;;;;;;5021980;28;20504;-79
2021/05/28 04:12:12;;;;;;;25.80;23.83;;;11.80;85.20;;;;;;5024362;28;20494;-79
2021/05/28 04:14:40;;;;;;;26.10;24.50;;;11.70;85.30;;;;;;5023156;28;20467;-78
2021/05/28 04:17:06;;;;;;;27.70;26.10;;;11.70;85.50;;;;;;5005122;28;20484;-79
2021/05/28 04:19:32;;;;;;;26.40;24.80;;;11.70;85.20;;;;;;5016929;28;20464;-79
2021/05/28 04:21:59;;;;;;;25.90;24.30;;;11.90;85.00;;;;;;5024068;28;20560;-78
2021/05/28 04:24:25;;;;;;;25.57;23.87;;;12.00;84.70;;;;;;5015825;28;20466;-78
2021/05/28 04:26:52;;;;;;;27.20;25.60;;;12.20;83.80;;;;;;5022376;28;20507;-78
2021/05/28 04:29:19;;;;;;;29.00;27.40;;;12.10;83.30;;;;;;5021856;28;20519;-78
2021/05/28 04:31:46;;;;;;;27.63;26.03;;;12.00;83.20;;;;;;5014325;28;20522;-77
2021/05/28 04:34:13;;;;;;;27.47;25.87;;;12.00;83.20;;;;;;5024362;28;20543;-78
2021/05/28 04:36:39;;;;;;;28.67;26.97;;;12.10;83.20;;;;;;5022273;28;20463;-78
2021/05/28 04:39:06;;;;;;;28.93;27.13;;;12.10;82.50;;;;;;5022431;28;20474;-78
2021/05/28 04:41:33;;;;;;;27.33;25.73;;;12.20;82.00;;;;;;5009665;28;20487;-77
2021/05/28 04:43:59;;;;;;;28.80;26.90;;;12.40;81.00;;;;;;5021999;28;20542;-78
2021/05/28 04:46:27;;;;;;;28.50;26.80;;;12.60;81.00;;;;;;5018737;28;20834;-77
2021/05/28 04:48:54;;;;;;;28.53;26.70;;;12.50;81.20;;;;;;5024460;28;20494;-80
2021/05/28 04:51:20;;;;;;;30.30;28.17;;;12.50;80.80;;;;;;5024440;28;21170;-76
2021/05/28 04:53:47;;;;;;;28.63;26.80;;;12.40;80.90;;;;;;5029357;28;20467;-79
2021/05/28 04:56:15;;;;;;;29.40;27.40;;;12.40;80.40;;;;;;5027249;28;20897;-80
2021/05/28 04:58:42;;;;;;;27.90;26.00;;;12.50;80.60;;;;;;5026746;28;21396;-80
2021/05/28 05:01:08;;;;;;;32.13;29.73;;;12.50;80.60;;;;;;5026694;28;20478;-79
2021/05/28 05:03:35;;;;;;;30.63;28.67;;;12.50;81.10;;;;;;5031553;28;20877;-79
2021/05/28 05:06:02;;;;;;;28.40;26.40;;;12.60;80.40;;;;;;5028252;28;20905;-80
2021/05/28 05:08:28;;;;;;;29.83;28.03;;;12.60;80.60;;;;;;5030622;28;20546;-79
2021/05/28 05:10:55;;;;;;;31.10;29.23;;;12.80;80.00;;;;;;5025685;28;21163;-81
2021/05/28 05:13:22;;;;;;;30.87;28.77;;;12.80;80.00;;;;;;5034383;28;20568;-79
2021/05/28 05:15:48;;;;;;;28.60;26.80;;;12.90;79.50;;;;;;5018527;28;20453;-80
2021/05/28 05:18:15;;;;;;;29.60;27.80;;;12.90;79.60;;;;;;5030437;28;20554;-80
2021/05/28 05:20:41;;;;;;;33.03;30.80;;;13.00;79.30;;;;;;5029500;28;20561;-79
2021/05/28 05:23:09;;;;;;;31.43;29.23;;;13.20;78.30;;;;;;5024364;28;20486;-79
2021/05/28 05:25:35;;;;;;;32.27;30.13;;;13.30;78.20;;;;;;5020575;28;20468;-81
2021/05/28 05:28:02;;;;;;;30.30;28.40;;;13.30;78.20;;;;;;5015646;28;21390;-78
2021/05/28 05:30:28;;;;;;;31.80;29.70;;;13.50;77.80;;;;;;5022868;28;20522;-78
2021/05/28 05:32:54;;;;;;;30.20;28.10;;;13.40;77.40;;;;;;5037567;28;20522;-79
2021/05/28 05:35:21;;;;;;;31.47;29.33;;;13.30;77.50;;;;;;5021764;28;21145;-78
2021/05/28 05:37:47;;;;;;;31.47;29.27;;;13.00;77.90;;;;;;5005901;28;20465;-78
2021/05/28 05:40:15;;;;;;;36.03;33.63;;;13.10;78.20;;;;;;5014697;28;20518;-78
2021/05/28 05:42:43;;;;;;;34.07;31.87;;;13.20;77.90;;;;;;5028100;28;20484;-78
2021/05/28 05:45:11;;;;;;;33.50;31.30;;;13.30;78.00;;;;;;5017588;28;21006;-77
2021/05/28 05:47:37;;;;;;;33.83;31.50;;;13.40;77.30;;;;;;5022320;28;20468;-78
2021/05/28 05:50:05;;;;;;;31.73;29.37;;;13.50;76.90;;;;;;5019509;28;20460;-78
2021/05/28 05:52:31;;;;;;;32.23;30.13;;;13.50;77.20;;;;;;5011329;28;20483;-78
2021/05/28 05:54:58;;;;;;;33.37;30.90;;;13.40;77.10;;;;;;5016499;28;20500;-75
2021/05/28 05:57:25;;;;;;;32.80;30.60;;;13.40;77.20;;;;;;5016970;28;20498;-76
2021/05/28 05:59:52;;;;;;;31.70;29.57;;;13.20;77.80;;;;;;5014460;28;20464;-77
2021/05/28 06:02:18;;;;;;;34.13;31.60;;;13.30;77.70;;;;;;5018505;28;20488;-78
2021/05/28 06:04:44;;;;;;;35.10;32.70;;;13.50;77.60;;;;;;5015965;28;20978;-80
2021/05/28 06:07:11;;;;;;;32.70;30.47;;;13.40;76.90;;;;;;5023039;28;20448;-77
2021/05/28 06:09:38;;;;;;;32.40;30.30;;;13.50;76.80;;;;;;5025299;28;20627;-78
2021/05/28 06:12:05;;;;;;;30.30;28.30;;;13.50;77.30;;;;;;5008622;28;20567;-79
2021/05/28 06:14:32;;;;;;;32.23;30.00;;;13.60;77.10;;;;;;5019016;28;20458;-79
2021/05/28 06:16:59;;;;;;;31.97;29.97;;;13.50;77.30;;;;;;5013985;28;20481;-78
2021/05/28 06:19:25;;;;;;;31.70;29.70;;;13.60;77.10;;;;;;5027755;28;21352;-77
2021/05/28 06:21:52;;;;;;;32.00;29.80;;;13.50;77.30;;;;;;5027175;28;20487;-77
2021/05/28 06:24:18;;;;;;;31.27;29.13;;;13.50;77.30;;;;;;5027333;28;20448;-78
2021/05/28 06:26:45;;;;;;;31.73;29.53;;;13.60;76.60;;;;;;5008522;28;20471;-77
2021/05/28 06:29:11;;;;;;;31.20;29.20;;;13.80;75.70;;;;;;5014839;28;20542;-77
2021/05/28 06:31:47;;;;;;;30.70;28.80;;;14.00;75.30;;;;;;5024917;28;20479;-77
2021/05/28 06:34:14;;;;;;;30.40;28.33;;;14.10;74.50;;;;;;5028572;28;20547;-77
2021/05/28 06:36:43;;;;;;;30.50;28.57;;;14.30;73.80;;;;;;5021707;28;20521;-79
2021/05/28 06:39:11;;;;;;;33.63;31.60;;;14.30;74.40;;;;;;5031047;28;20613;-80
2021/05/28 06:41:37;;;;;;;31.23;29.13;;;14.60;73.20;;;;;;5029343;28;20916;-81
2021/05/28 06:44:05;;;;;;;32.23;30.07;;;14.70;72.80;;;;;;5041930;28;20567;-81
2021/05/28 06:46:35;;;;;;;32.60;30.43;;;14.80;71.50;;;;;;5027906;28;20490;-80
2021/05/28 06:49:03;;;;;;;32.63;30.03;;;14.90;71.30;;;;;;5017493;28;20456;-81
2021/05/28 06:51:29;;;;;;;33.03;30.90;;;14.60;71.70;;;;;;5020943;28;20453;-82
2021/05/28 06:53:56;;;;;;;31.27;29.27;;;14.80;72.00;;;;;;5020677;28;20483;-81
2021/05/28 06:56:22;;;;;;;31.50;29.50;;;15.10;71.00;;;;;;5032715;28;20527;-81
2021/05/28 06:58:50;;;;;;;33.83;31.53;;;15.30;70.30;;;;;;5038000;28;20536;-81
2021/05/28 07:01:17;;;;;;;30.83;28.43;;;15.50;70.00;;;;;;5021224;28;20488;-80
2021/05/28 07:03:45;;;;;;;30.97;29.07;;;15.50;69.50;;;;;;5032219;28;20492;-81
2021/05/28 07:06:13;;;;;;;30.80;28.93;;;15.60;69.00;;;;;;5022127;28;20831;-80
2021/05/28 07:08:39;;;;;;;31.53;29.63;;;15.70;68.40;;;;;;5031093;28;20542;-80
2021/05/28 07:11:07;;;;;;;32.73;30.63;;;15.80;68.40;;;;;;5024939;28;20456;-79
2021/05/28 07:13:34;;;;;;;31.53;29.50;;;16.00;68.30;;;;;;5029638;28;20490;-79
2021/05/28 07:16:00;;;;;;;31.03;28.93;;;16.00;67.30;;;;;;5021306;28;20461;-80
2021/05/28 07:18:27;;;;;;;33.13;31.03;;;16.00;67.70;;;;;;5024990;28;20491;-79
2021/05/28 07:20:53;;;;;;;32.20;29.90;;;15.80;67.90;;;;;;5015062;28;21032;-78
2021/05/28 07:23:23;;;;;;;31.30;29.10;;;15.80;68.20;;;;;;5022268;28;20482;-78
2021/05/28 07:25:50;;;;;;;29.87;27.87;;;15.80;67.70;;;;;;5015321;28;20492;-79
2021/05/28 07:28:17;;;;;;;30.37;28.37;;;16.00;67.90;;;;;;5023989;28;20466;-76
2021/05/28 07:30:43;;;;;;;32.07;29.70;;;16.30;65.90;;;;;;5023406;28;21304;-78
2021/05/28 07:33:10;;;;;;;30.70;28.80;;;16.20;67.00;;;;;;5028538;28;20475;-80
2021/05/28 07:35:36;;;;;;;32.37;30.27;;;16.40;67.10;;;;;;5026065;28;20459;-79
2021/05/28 07:38:03;;;;;;;31.63;29.43;;;16.70;66.10;;;;;;5028769;28;20518;-79
2021/05/28 07:40:30;;;;;;;33.10;30.63;;;16.90;65.60;;;;;;5031630;28;20497;-81
2021/05/28 07:42:57;;;;;;;32.77;30.47;;;17.10;65.40;;;;;;5050943;28;20477;-80
2021/05/28 07:45:24;;;;;;;32.80;30.67;;;17.50;65.10;;;;;;5023369;28;21319;-78
2021/05/28 07:47:50;;;;;;;31.67;29.63;;;17.60;64.00;;;;;;5025520;28;20557;-78
2021/05/28 07:50:17;;;;;;;31.07;29.00;;;17.60;64.00;;;;;;5019068;28;20540;-78
2021/05/28 07:52:43;;;;;;;32.03;29.93;;;17.70;63.70;;;;;;5007694;28;20484;-80
2021/05/28 07:55:11;;;;;;;31.63;29.63;;;17.90;64.10;;;;;;5031174;28;20488;-80
2021/05/28 07:57:41;;;;;;;30.83;28.70;;;18.00;63.20;;;;;;5020019;28;20540;-80
2021/05/28 08:00:09;;;;;;;32.50;30.50;;;18.00;63.00;;;;;;5009146;28;20623;-79
2021/05/28 08:02:36;;;;;;;32.60;30.50;;;18.10;62.10;;;;;;5023539;28;20483;-80
2021/05/28 08:05:03;;;;;;;34.10;31.80;;;18.10;61.90;;;;;;5038493;28;20582;-79
2021/05/28 08:07:32;;;;;;;30.70;28.90;;;17.40;62.80;;;;;;5042072;28;20459;-81
2021/05/28 08:09:59;;;;;;;32.33;30.23;;;17.20;64.00;;;;;;5034108;28;20463;-79
2021/05/28 08:12:25;;;;;;;31.50;29.33;;;17.30;63.80;;;;;;5012007;28;20500;-80
2021/05/28 08:14:53;;;;;;;31.00;29.20;;;17.50;62.90;;;;;;5014721;28;20511;-80
2021/05/28 08:17:22;;;;;;;31.07;29.03;;;17.70;62.10;;;;;;5010868;28;20463;-79
2021/05/28 08:19:48;;;;;;;31.17;29.10;;;17.40;62.20;;;;;;5026071;28;20453;-77
2021/05/28 08:22:15;;;;;;;30.63;28.50;;;17.50;61.90;;;;;;5025283;28;21117;-80
2021/05/28 08:24:41;;;;;;;29.80;28.00;;;17.40;62.80;;;;;;5023977;28;20525;-80
2021/05/28 08:27:08;;;;;;;30.03;28.23;;;17.40;63.00;;;;;;5009555;28;20465;-80
2021/05/28 08:29:34;;;;;;;29.40;27.63;;;17.40;62.90;;;;;;5011044;28;20449;-78
2021/05/28 08:32:01;;;;;;;31.40;29.30;;;17.80;61.20;;;;;;5026235;28;20558;-79
2021/05/28 08:34:31;;;;;;;28.60;26.77;;;17.80;60.30;;;;;;5029777;28;20489;-79
2021/05/28 08:36:57;;;;;;;29.90;27.90;;;18.20;60.20;;;;;;5007427;28;21080;-80
2021/05/28 08:39:24;;;;;;;30.80;28.80;;;18.30;60.10;;;;;;5008474;28;20915;-78
2021/05/28 08:41:51;;;;;;;30.17;28.30;;;18.30;59.70;;;;;;5015016;28;21258;-80
2021/05/28 08:44:23;;;;;;;30.20;28.30;;;18.40;59.60;;;;;;5025601;28;20538;-78
2021/05/28 08:46:50;;;;;;;31.00;29.00;;;17.70;61.00;;;;;;5019691;28;20474;-77
2021/05/28 08:49:17;;;;;;;31.80;29.40;;;17.50;61.70;;;;;;5023020;28;20463;-78
2021/05/28 08:51:44;;;;;;;31.83;29.33;;;17.20;63.00;;;;;;5026999;28;20482;-81
2021/05/28 08:54:10;;;;;;;30.67;28.33;;;17.20;63.10;;;;;;5034615;28;20467;-80
2021/05/28 08:56:37;;;;;;;31.23;29.33;;;17.30;62.50;;;;;;5016310;28;20957;-82
2021/05/28 08:59:05;;;;;;;29.27;27.47;;;17.70;60.90;;;;;;5023380;28;20452;-79
2021/05/28 09:01:31;;;;;;;31.63;29.40;;;17.90;59.70;;;;;;5014296;28;20493;-79
2021/05/28 09:03:59;;;;;;;30.47;28.50;;;18.10;59.60;;;;;;5031477;28;20459;-80
2021/05/28 09:06:38;;;;;;;31.67;29.47;;;18.20;59.70;;;;;;5029490;28;20550;-77
2021/05/28 09:09:15;;;;;;;29.30;27.50;;;18.10;60.20;;;;;;5029624;28;20459;-80
2021/05/28 09:11:52;;;;;;;28.70;27.00;;;17.90;59.50;;;;;;5019861;28;20482;-82
2021/05/28 09:14:39;;;;;;;30.90;28.60;;;17.50;59.90;;;;;;5033098;28;20499;-81
2021/05/28 09:17:09;;;;;;;28.93;27.03;;;17.40;60.20;;;;;;5017829;28;20453;-81
2021/05/28 09:19:36;;;;;;;32.70;30.63;;;17.40;60.40;;;;;;5034359;28;20468;-80
2021/05/28 09:22:05;;;;;;;29.90;27.93;;;17.50;60.20;;;;;;5035037;28;20993;-82
2021/05/28 09:24:34;;;;;;;31.37;29.07;;;17.60;60.00;;;;;;5032562;28;20454;-81
2021/05/28 09:27:23;;;;;;;31.87;29.57;;;17.70;59.80;;;;;;5026208;28;20452;-81
2021/05/28 09:30:09;;;;;;;30.40;28.30;;;17.70;59.90;;;;;;5028412;28;20562;-80
2021/05/28 09:32:38;;;;;;;31.80;29.70;;;17.40;59.30;;;;;;5032734;28;20474;-81
2021/05/28 09:35:11;;;;;;;30.03;28.00;;;17.00;60.10;;;;;;5030001;28;20480;-81
2021/05/28 09:37:43;;;;;;;29.77;27.83;;;16.70;61.50;;;;;;5030205;28;20920;-79
2021/05/28 09:40:14;;;;;;;30.47;28.47;;;16.80;61.70;;;;;;5028790;28;20463;-80
2021/05/28 09:42:48;;;;;;;29.90;27.90;;;16.80;61.60;;;;;;5049435;28;20550;-78
2021/05/28 09:45:29;;;;;;;33.03;31.07;;;16.60;61.80;;;;;;5020313;28;20483;-79
2021/05/28 09:47:56;;;;;;;29.53;27.43;;;16.70;61.60;;;;;;5012301;28;20838;-78
2021/05/28 09:50:23;;;;;;;28.63;26.70;;;16.70;60.60;;;;;;5026745;28;20560;-77
2021/05/28 09:52:50;;;;;;;29.47;27.60;;;16.90;60.50;;;;;;5027296;28;20486;-76
2021/05/28 09:55:17;;;;;;;30.63;28.53;;;17.20;59.40;;;;;;5018806;28;20468;-77
2021/05/28 09:57:46;;;;;;;29.10;27.30;;;17.10;60.10;;;;;;5022771;28;20526;-77
2021/05/28 10:00:23;;;;;;;31.00;29.00;;;17.40;58.90;;;;;;5020088;28;20525;-77
2021/05/28 10:02:51;;;;;;;31.03;29.03;;;17.50;58.90;;;;;;5025248;28;20487;-78
2021/05/28 10:05:24;;;;;;;30.57;28.47;;;17.20;59.90;;;;;;5027548;28;20463;-77
2021/05/28 10:07:52;;;;;;;30.67;28.70;;;17.30;60.30;;;;;;5027201;28;20460;-80
2021/05/28 10:10:19;;;;;;;32.70;30.67;;;17.30;60.50;;;;;;5019984;28;20465;-77
2021/05/28 10:12:48;;;;;;;29.37;27.57;;;17.30;60.70;;;;;;5025571;28;21310;-76
2021/05/28 10:15:15;;;;;;;32.00;29.70;;;17.20;61.80;;;;;;5025760;28;20467;-77
2021/05/28 10:17:42;;;;;;;31.00;29.00;;;17.30;61.00;;;;;;5026357;28;21382;-77
2021/05/28 10:20:09;;;;;;;30.50;28.70;;;17.70;59.80;;;;;;5022273;28;20460;-77
2021/05/28 10:22:36;;;;;;;29.80;28.10;;;17.70;59.50;;;;;;5031096;28;20705;-79
2021/05/28 10:25:05;;;;;;;31.43;29.33;;;17.90;59.00;;;;;;5024248;28;20468;-78
2021/05/28 10:27:32;;;;;;;30.13;28.30;;;18.20;57.90;;;;;;5036917;28;20486;-77
2021/05/28 10:29:59;;;;;;;30.90;28.97;;;18.30;57.40;;;;;;5021348;28;20466;-78
2021/05/28 10:32:32;;;;;;;32.17;30.10;;;18.50;56.80;;;;;;5020141;28;21117;-76
2021/05/28 10:35:17;;;;;;;31.00;29.13;;;18.70;56.60;;;;;;5015128;28;20539;-77
2021/05/28 10:37:45;;;;;;;30.97;29.07;;;18.80;55.70;;;;;;5022852;28;20456;-77
2021/05/28 10:40:26;;;;;;;33.50;31.80;;;18.90;55.80;;;;;;5036755;28;20460;-77
2021/05/28 10:43:01;;;;;;;30.07;28.27;;;18.80;55.60;;;;;;5039791;28;20478;-76
2021/05/28 10:45:57;;;;;;;31.30;29.40;;;18.70;55.90;;;;;;5032311;28;20475;-77
2021/05/28 10:49:07;;;;;;;29.17;27.10;;;18.90;54.80;;;;;;5012770;28;20542;-74
2021/05/28 10:51:59;;;;;;;27.70;26.00;;;18.80;53.20;;;;;;4989647;28;20498;-76
2021/05/28 10:54:28;;;;;;;28.47;26.87;;;18.00;53.80;;;;;;5025318;28;20456;-78
2021/05/28 10:56:55;;;;;;;27.80;26.30;;;17.30;56.50;;;;;;5021115;28;20459;-77
2021/05/28 10:59:23;;;;;;;28.10;26.53;;;17.40;55.30;;;;;;5024893;28;20468;-77
2021/05/28 11:01:52;;;;;;;28.27;26.60;;;17.60;55.40;;;;;;5023922;28;20889;-77
2021/05/28 11:04:22;;;;;;;28.03;26.53;;;18.20;54.50;;;;;;5025450;28;21196;-77
2021/05/28 11:07:14;;;;;;;28.10;26.53;;;18.70;53.00;;;;;;5024794;28;20496;-77
2021/05/28 11:09:42;;;;;;;28.00;26.40;;;19.10;52.90;;;;;;5023927;28;21138;-76
2021/05/28 11:12:10;;;;;;;27.87;26.07;;;19.40;52.40;;;;;;5016910;28;20809;-76
2021/05/28 11:14:40;;;;;;;28.20;26.60;;;19.60;51.50;;;;;;5022949;28;20588;-77
2021/05/28 11:17:18;;;;;;;28.70;26.97;;;19.50;51.20;;;;;;5026751;28;20472;-76
2021/05/28 11:19:52;;;;;;;29.40;27.70;;;19.40;51.70;;;;;;5031718;28;20547;-79
2021/05/28 11:22:30;;;;;;;27.97;26.30;;;19.20;52.20;;;;;;5025348;28;20483;-77
2021/05/28 11:25:03;;;;;;;28.07;26.50;;;19.20;51.60;;;;;;5017458;28;20486;-77
2021/05/28 11:27:42;;;;;;;27.33;25.83;;;19.00;51.40;;;;;;5020533;28;20475;-77
2021/05/28 11:30:35;;;;;;;27.50;25.70;;;19.30;51.00;;;;;;5024410;28;20490;-77
2021/05/28 11:33:02;;;;;;;28.27;26.67;;;19.30;50.60;;;;;;5020563;28;20472;-77
2021/05/28 11:35:30;;;;;;;28.67;26.97;;;19.40;50.80;;;;;;5023313;28;20937;-77
2021/05/28 11:37:59;;;;;;;28.60;26.90;;;19.00;51.30;;;;;;5024906;28;20916;-77
2021/05/28 11:40:27;;;;;;;27.90;26.20;;;19.00;51.30;;;;;;5020000;28;21095;-75
2021/05/28 11:43:08;;;;;;;27.77;26.07;;;19.10;51.60;;;;;;5030649;28;20526;-74
2021/05/28 11:45:35;;;;;;;29.33;27.53;;;19.40;51.10;;;;;;5019169;28;20599;-77
2021/05/28 11:48:02;;;;;;;27.77;26.17;;;19.60;50.30;;;;;;5025372;28;20460;-77
2021/05/28 11:50:39;;;;;;;28.70;27.00;;;19.90;50.00;;;;;;5017346;28;20544;-76
2021/05/28 11:53:08;;;;;;;27.93;26.13;;;20.30;49.50;;;;;;5026385;28;20479;-78
2021/05/28 11:55:44;;;;;;;28.40;26.80;;;20.70;49.00;;;;;;5026022;28;20492;-78
2021/05/28 11:58:15;;;;;;;28.33;26.63;;;20.60;48.00;;;;;;5025866;28;20473;-79
2021/05/28 12:00:42;;;;;;;27.50;25.90;;;19.80;49.60;;;;;;5028335;28;20468;-77
2021/05/28 12:03:09;;;;;;;28.30;26.60;;;19.40;51.10;;;;;;5020440;28;20481;-79
2021/05/28 12:05:37;;;;;;;30.37;28.73;;;19.20;51.50;;;;;;5025228;28;20491;-78
2021/05/28 12:08:20;;;;;;;28.73;26.37;;;19.30;50.40;;;;;;5017709;28;20464;-78
2021/05/28 12:10:48;;;;;;;27.47;25.97;;;18.80;50.90;;;;;;5019594;28;20469;-78
2021/05/28 12:13:16;;;;;;;27.47;25.90;;;18.10;51.60;;;;;;5025297;28;20507;-79
2021/05/28 12:15:44;;;;;;;32.43;30.40;;;17.50;52.90;;;;;;5024384;28;20582;-80
2021/05/28 12:18:16;;;;;;;27.70;26.00;;;17.80;52.40;;;;;;5016771;28;20558;-78
2021/05/28 12:20:44;;;;;;;28.70;26.90;;;18.50;52.00;;;;;;5012692;28;20574;-79
2021/05/28 12:23:22;;;;;;;30.13;28.33;;;19.20;50.40;;;;;;5022288;28;20555;-78
2021/05/28 12:25:53;;;;;;;29.13;27.47;;;19.70;48.90;;;;;;5016940;28;20482;-80
2021/05/28 12:28:26;;;;;;;28.33;26.73;;;20.50;48.80;;;;;;5020647;28;21060;-79
2021/05/28 12:31:04;;;;;;;28.80;27.13;;;21.00;46.90;;;;;;5021641;28;20463;-79
2021/05/28 12:33:33;;;;;;;27.83;26.03;;;21.00;46.90;;;;;;5023940;28;20483;-78